Time;durP1;ratioP1;P1;durP2;ratioP2;P2;SDS_P1;SDS_P2;PMS_P1;PMS_P2;Temp;Humidity;BMP_temperature;BMP_pressure;BME280_temperature;BME280_humidity;BME280_pressure;Samples;Min_cycle;Max_cycle;Signal;HPM_P1;HPM_P2
2021/08/19 00:01:00;;;;;;;11.70;7.87;;;;;;;;;;4389902;32;20591;-68
2021/08/19 00:03:27;;;;;;;14.70;8.25;;;;;;;;;;4391993;32;20161;-68
2021/08/19 00:05:54;;;;;;;12.00;7.93;;;;;;;;;;4394095;32;20201;-69
2021/08/19 00:08:20;;;;;;;13.43;7.90;;;;;;;;;;4394349;32;20230;-70
2021/08/19 00:10:46;;;;;;;13.55;7.97;;;;;;;;;;4392533;32;20073;-68
2021/08/19 00:13:13;;;;;;;14.27;8.18;;;;;;;;;;4392425;32;20499;-68
2021/08/19 00:15:40;;;;;;;13.55;7.50;;;;;;;;;;4393368;32;20089;-68
2021/08/19 00:18:07;;;;;;;13.75;8.13;;;;;;;;;;4379643;32;20074;-68
2021/08/19 00:20:33;;;;;;;14.20;7.65;;;;;;;;;;4380286;32;20086;-69
2021/08/19 00:23:01;;;;;;;14.32;7.30;;;;;;;;;;4392300;32;20069;-67
2021/08/19 00:25:29;;;;;;;12.10;7.80;;;;;;;;;;4380238;32;20081;-68
2021/08/19 00:27:55;;;;;;;14.13;8.30;;;;;;;;;;4393726;32;20082;-68
2021/08/19 00:30:22;;;;;;;11.73;7.55;;;;;;;;;;4393489;32;20161;-68
2021/08/19 00:32:48;;;;;;;16.60;9.23;;;;;;;;;;4391728;32;20094;-68
2021/08/19 00:35:15;;;;;;;14.68;8.20;;;;;;;;;;4393595;32;20535;-68
2021/08/19 00:37:41;;;;;;;12.13;7.93;;;;;;;;;;4392112;32;20077;-69
2021/08/19 00:40:08;;;;;;;13.02;7.18;;;;;;;;;;4379724;32;20159;-68
2021/08/19 00:42:35;;;;;;;10.95;7.70;;;;;;;;;;4392061;32;20593;-68
2021/08/19 00:45:01;;;;;;;11.27;7.90;;;;;;;;;;4379047;32;20448;-68
2021/08/19 00:47:29;;;;;;;13.57;8.18;;;;;;;;;;4379448;32;20080;-67
2021/08/19 00:49:59;;;;;;;10.30;7.18;;;;;;;;;;4393874;32;20097;-68
2021/08/19 00:52:26;;;;;;;13.75;7.70;;;;;;;;;;4379835;32;20169;-67
2021/08/19 00:54:53;;;;;;;13.13;7.78;;;;;;;;;;4391907;32;20094;-68
2021/08/19 00:57:20;;;;;;;14.93;7.72;;;;;;;;;;4391893;32;20108;-69
2021/08/19 00:59:47;;;;;;;13.68;7.70;;;;;;;;;;4379482;32;20077;-68
2021/08/19 01:02:13;;;;;;;14.48;7.45;;;;;;;;;;4392021;32;20072;-69
2021/08/19 01:04:40;;;;;;;13.13;7.75;;;;;;;;;;4391779;32;20099;-68
2021/08/19 01:07:08;;;;;;;12.57;7.43;;;;;;;;;;4391901;32;20085;-69
2021/08/19 01:09:38;;;;;;;13.50;7.55;;;;;;;;;;4392057;32;20085;-68
2021/08/19 01:12:05;;;;;;;16.37;9.77;;;;;;;;;;4379379;32;20074;-68
2021/08/19 01:14:32;;;;;;;14.75;7.35;;;;;;;;;;4391531;32;20070;-68
2021/08/19 01:17:04;;;;;;;13.20;7.30;;;;;;;;;;4391392;32;20480;-68
2021/08/19 01:19:30;;;;;;;10.73;7.10;;;;;;;;;;4391473;32;20132;-68
2021/08/19 01:21:57;;;;;;;12.00;7.22;;;;;;;;;;4391690;32;20515;-68
2021/08/19 01:24:24;;;;;;;13.32;7.85;;;;;;;;;;4378980;32;20082;-68
2021/08/19 01:26:50;;;;;;;11.48;7.20;;;;;;;;;;4391625;32;20058;-69
2021/08/19 01:29:17;;;;;;;13.27;7.90;;;;;;;;;;4391795;32;20110;-69
2021/08/19 01:31:57;;;;;;;11.60;7.18;;;;;;;;;;4393071;32;20070;-68
2021/08/19 01:34:24;;;;;;;13.82;7.72;;;;;;;;;;4380419;32;20069;-69
2021/08/19 01:36:50;;;;;;;15.07;8.23;;;;;;;;;;4391353;32;20509;-68
2021/08/19 01:39:17;;;;;;;15.05;8.45;;;;;;;;;;4391623;32;20089;-68
2021/08/19 01:41:43;;;;;;;16.77;8.57;;;;;;;;;;4392956;32;20069;-69
2021/08/19 01:44:10;;;;;;;27.10;10.20;;;;;;;;;;4391213;32;20103;-68
2021/08/19 01:46:36;;;;;;;23.35;10.77;;;;;;;;;;4391351;32;20161;-68
2021/08/19 01:49:03;;;;;;;18.92;10.68;;;;;;;;;;4366006;32;20530;-68
2021/08/19 01:51:29;;;;;;;19.25;10.73;;;;;;;;;;4390964;32;20074;-68
2021/08/19 01:53:56;;;;;;;21.02;9.65;;;;;;;;;;4392351;32;20537;-68
2021/08/19 01:56:25;;;;;;;15.52;10.07;;;;;;;;;;4390596;32;20089;-68
2021/08/19 01:58:55;;;;;;;22.33;10.85;;;;;;;;;;4378523;32;20089;-68
2021/08/19 02:01:23;;;;;;;15.93;10.07;;;;;;;;;;4391266;32;20086;-68
2021/08/19 02:03:50;;;;;;;17.25;9.70;;;;;;;;;;4391153;32;20467;-68
2021/08/19 02:06:16;;;;;;;23.48;11.12;;;;;;;;;;4390633;32;20065;-68
2021/08/19 02:08:43;;;;;;;19.80;10.23;;;;;;;;;;4390843;32;20520;-68
2021/08/19 02:11:10;;;;;;;16.37;9.65;;;;;;;;;;4390939;32;20081;-67
2021/08/19 02:13:37;;;;;;;16.80;9.80;;;;;;;;;;4378348;32;20088;-68
2021/08/19 02:16:03;;;;;;;18.37;9.68;;;;;;;;;;4377731;32;20082;-68
2021/08/19 02:18:30;;;;;;;17.02;9.65;;;;;;;;;;4390741;32;20085;-68
2021/08/19 02:20:56;;;;;;;17.95;9.57;;;;;;;;;;4390637;32;20082;-68
2021/08/19 02:23:23;;;;;;;17.23;9.60;;;;;;;;;;4378123;32;20110;-68
2021/08/19 02:25:50;;;;;;;15.32;9.48;;;;;;;;;;4377854;32;20105;-67
2021/08/19 02:28:16;;;;;;;16.02;8.93;;;;;;;;;;4392156;32;20062;-68
2021/08/19 02:30:42;;;;;;;14.20;9.60;;;;;;;;;;4390474;32;20084;-68
2021/08/19 02:33:09;;;;;;;16.77;9.20;;;;;;;;;;4392128;32;20085;-68
2021/08/19 02:35:35;;;;;;;15.23;8.95;;;;;;;;;;4390091;32;20157;-69
2021/08/19 02:38:06;;;;;;;15.63;9.05;;;;;;;;;;4390056;32;20414;-68
2021/08/19 02:40:33;;;;;;;16.12;8.98;;;;;;;;;;4390694;32;20158;-68
2021/08/19 02:42:59;;;;;;;15.20;9.38;;;;;;;;;;4390513;32;20073;-69
2021/08/19 02:45:26;;;;;;;16.37;9.20;;;;;;;;;;4391759;32;20143;-69
2021/08/19 02:47:52;;;;;;;18.45;9.52;;;;;;;;;;4378012;32;20176;-68
2021/08/19 02:50:20;;;;;;;14.15;9.27;;;;;;;;;;4377532;32;20081;-69
2021/08/19 02:52:46;;;;;;;14.23;9.52;;;;;;;;;;4378205;32;20512;-68
2021/08/19 02:55:13;;;;;;;16.10;8.93;;;;;;;;;;4390354;32;20101;-68
2021/08/19 02:57:39;;;;;;;14.13;8.73;;;;;;;;;;4390145;32;20155;-69
2021/08/19 03:00:07;;;;;;;17.90;9.00;;;;;;;;;;4390437;32;20097;-69
2021/08/19 03:02:33;;;;;;;17.35;9.65;;;;;;;;;;4390091;32;20082;-69
2021/08/19 03:05:01;;;;;;;18.90;9.60;;;;;;;;;;4390060;32;20074;-68
2021/08/19 03:07:29;;;;;;;14.05;8.35;;;;;;;;;;4377706;32;20073;-67
2021/08/19 03:09:55;;;;;;;14.57;8.95;;;;;;;;;;4390306;32;20070;-68
2021/08/19 03:12:22;;;;;;;14.32;8.30;;;;;;;;;;4390164;32;20153;-68
2021/08/19 03:14:48;;;;;;;16.33;9.63;;;;;;;;;;4377347;32;20058;-68
2021/08/19 03:17:15;;;;;;;16.60;9.07;;;;;;;;;;4377537;32;20077;-68
2021/08/19 03:19:41;;;;;;;17.30;9.52;;;;;;;;;;4378492;32;20085;-68
2021/08/19 03:22:09;;;;;;;16.92;8.95;;;;;;;;;;4391995;32;20067;-67
2021/08/19 03:24:35;;;;;;;20.73;9.65;;;;;;;;;;4390074;32;20081;-67
2021/08/19 03:27:02;;;;;;;22.52;8.95;;;;;;;;;;4389901;32;20089;-66
2021/08/19 03:29:30;;;;;;;17.40;9.90;;;;;;;;;;4377525;32;20086;-67
2021/08/19 03:31:56;;;;;;;19.45;9.45;;;;;;;;;;4389482;32;20088;-68
2021/08/19 03:34:23;;;;;;;20.27;10.02;;;;;;;;;;4389814;32;20108;-68
2021/08/19 03:36:50;;;;;;;21.73;10.80;;;;;;;;;;4390393;32;20541;-68
2021/08/19 03:39:16;;;;;;;17.25;9.90;;;;;;;;;;4380672;32;20562;-69
2021/08/19 03:41:43;;;;;;;17.87;10.02;;;;;;;;;;4393217;32;20077;-66
2021/08/19 03:44:10;;;;;;;19.17;10.43;;;;;;;;;;4392822;32;20500;-68
2021/08/19 03:46:37;;;;;;;18.52;9.55;;;;;;;;;;4394620;32;20145;-68
2021/08/19 03:49:04;;;;;;;19.33;9.13;;;;;;;;;;4393252;32;20536;-68
2021/08/19 03:51:30;;;;;;;18.35;9.68;;;;;;;;;;4393649;32;20096;-68
2021/08/19 03:53:58;;;;;;;16.87;8.30;;;;;;;;;;4393384;32;20086;-68
2021/08/19 03:56:28;;;;;;;22.50;10.20;;;;;;;;;;4394058;32;20086;-68
2021/08/19 03:58:55;;;;;;;19.77;9.35;;;;;;;;;;4394056;32;20078;-68
2021/08/19 04:01:22;;;;;;;21.33;9.32;;;;;;;;;;4380507;32;20087;-68
2021/08/19 04:03:49;;;;;;;16.08;9.18;;;;;;;;;;4392679;32;20089;-69
2021/08/19 04:06:16;;;;;;;20.37;8.85;;;;;;;;;;4392788;32;20078;-68
2021/08/19 04:08:43;;;;;;;18.27;9.25;;;;;;;;;;4392639;32;20541;-69
2021/08/19 04:11:09;;;;;;;15.07;8.35;;;;;;;;;;4392527;32;20157;-69
2021/08/19 04:13:39;;;;;;;14.07;8.43;;;;;;;;;;4392672;32;20100;-69
2021/08/19 04:16:06;;;;;;;13.77;8.18;;;;;;;;;;4392565;32;20094;-69
2021/08/19 04:18:33;;;;;;;17.12;8.70;;;;;;;;;;4392853;32;20114;-69
2021/08/19 04:21:01;;;;;;;14.20;7.97;;;;;;;;;;4380106;32;20069;-68
2021/08/19 04:23:27;;;;;;;15.95;7.75;;;;;;;;;;4392260;32;20077;-68
2021/08/19 04:25:54;;;;;;;16.85;8.25;;;;;;;;;;4392328;32;20173;-69
2021/08/19 04:28:21;;;;;;;16.98;8.98;;;;;;;;;;4391993;32;20066;-68
2021/08/19 04:30:47;;;;;;;19.02;8.55;;;;;;;;;;4392340;32;20089;-68
2021/08/19 04:33:14;;;;;;;16.42;7.95;;;;;;;;;;4379993;32;20149;-69
2021/08/19 04:35:42;;;;;;;18.65;7.95;;;;;;;;;;4392325;32;20066;-67
2021/08/19 04:38:08;;;;;;;13.23;7.87;;;;;;;;;;4393809;32;20175;-67
2021/08/19 04:40:35;;;;;;;13.02;7.78;;;;;;;;;;4391734;32;20077;-68
2021/08/19 04:43:01;;;;;;;14.85;8.35;;;;;;;;;;4379523;32;20483;-68
2021/08/19 04:45:28;;;;;;;16.80;9.38;;;;;;;;;;4379938;32;20074;-68
2021/08/19 04:47:54;;;;;;;15.73;8.63;;;;;;;;;;4392038;32;20166;-67
2021/08/19 04:50:21;;;;;;;15.68;8.68;;;;;;;;;;4393158;32;20083;-67
2021/08/19 04:52:47;;;;;;;16.45;9.07;;;;;;;;;;4392281;32;20082;-70
2021/08/19 04:55:14;;;;;;;18.58;8.77;;;;;;;;;;4392880;32;20096;-68
2021/08/19 04:57:40;;;;;;;15.20;8.43;;;;;;;;;;4391937;32;20449;-68
2021/08/19 05:00:07;;;;;;;15.90;8.30;;;;;;;;;;4392112;32;20072;-69
2021/08/19 05:02:34;;;;;;;19.00;8.50;;;;;;;;;;4391892;32;20153;-68
2021/08/19 05:05:00;;;;;;;18.12;8.55;;;;;;;;;;4379155;32;20066;-68
2021/08/19 05:07:27;;;;;;;15.02;8.00;;;;;;;;;;4391862;32;20209;-69
2021/08/19 05:09:53;;;;;;;19.33;8.68;;;;;;;;;;4391277;32;20176;-69
2021/08/19 05:12:20;;;;;;;15.05;8.30;;;;;;;;;;4393098;32;20085;-69
2021/08/19 05:14:46;;;;;;;14.87;8.18;;;;;;;;;;4391443;32;20092;-69
2021/08/19 05:17:13;;;;;;;16.65;8.73;;;;;;;;;;4391611;32;20089;-69
2021/08/19 05:19:39;;;;;;;12.40;7.57;;;;;;;;;;4378826;32;20081;-69
2021/08/19 05:22:06;;;;;;;16.50;8.60;;;;;;;;;;4391425;32;20161;-68
2021/08/19 05:24:32;;;;;;;16.73;8.98;;;;;;;;;;4391068;32;20547;-69
2021/08/19 05:26:59;;;;;;;15.75;7.85;;;;;;;;;;4392209;32;20086;-69
2021/08/19 05:29:25;;;;;;;15.02;8.43;;;;;;;;;;4392730;32;20539;-68
2021/08/19 05:31:52;;;;;;;16.40;8.48;;;;;;;;;;4391367;32;20527;-69
2021/08/19 05:34:18;;;;;;;11.85;7.47;;;;;;;;;;4379049;32;20089;-69
2021/08/19 05:36:45;;;;;;;18.65;9.05;;;;;;;;;;4391223;32;20089;-70
2021/08/19 05:39:11;;;;;;;15.07;7.95;;;;;;;;;;4391097;32;20096;-70
2021/08/19 05:41:38;;;;;;;17.60;8.80;;;;;;;;;;4378764;32;20516;-70
2021/08/19 05:44:05;;;;;;;15.95;8.00;;;;;;;;;;4392503;32;20074;-70
2021/08/19 05:46:31;;;;;;;15.32;8.57;;;;;;;;;;4390851;32;20069;-69
2021/08/19 05:48:58;;;;;;;16.30;8.70;;;;;;;;;;4391111;32;20096;-69
2021/08/19 05:51:25;;;;;;;14.45;7.72;;;;;;;;;;4390943;32;20154;-70
2021/08/19 05:53:51;;;;;;;15.70;8.40;;;;;;;;;;4391043;32;20160;-70
2021/08/19 05:56:18;;;;;;;16.20;8.48;;;;;;;;;;4390700;32;20105;-69
2021/08/19 05:58:44;;;;;;;14.55;8.35;;;;;;;;;;4390829;32;20084;-70
2021/08/19 06:01:11;;;;;;;17.02;8.98;;;;;;;;;;4390347;32;20065;-68
2021/08/19 06:03:37;;;;;;;14.70;8.13;;;;;;;;;;4378483;32;20077;-69
2021/08/19 06:06:04;;;;;;;15.02;7.25;;;;;;;;;;4391248;32;20178;-68
2021/08/19 06:08:30;;;;;;;15.75;8.23;;;;;;;;;;4391314;32;20077;-68
2021/08/19 06:10:57;;;;;;;14.87;7.72;;;;;;;;;;4391925;32;20148;-67
2021/08/19 06:13:23;;;;;;;14.80;9.25;;;;;;;;;;4390797;32;20089;-68
2021/08/19 06:15:50;;;;;;;14.38;7.95;;;;;;;;;;4390266;32;20516;-69
2021/08/19 06:18:16;;;;;;;16.00;8.00;;;;;;;;;;4390387;32;20062;-70
2021/08/19 06:20:43;;;;;;;13.93;7.45;;;;;;;;;;4390805;32;20097;-70
2021/08/19 06:23:13;;;;;;;12.88;7.35;;;;;;;;;;4391281;32;20077;-69
2021/08/19 06:25:40;;;;;;;14.35;7.53;;;;;;;;;;4392073;32;20077;-68
2021/08/19 06:28:06;;;;;;;12.88;6.50;;;;;;;;;;4390653;32;20073;-68
2021/08/19 06:30:33;;;;;;;12.65;7.43;;;;;;;;;;4390528;32;20081;-69
2021/08/19 06:33:02;;;;;;;14.18;7.47;;;;;;;;;;4390935;32;20141;-68
2021/08/19 06:35:29;;;;;;;15.10;6.90;;;;;;;;;;4377884;32;20497;-67
2021/08/19 06:37:56;;;;;;;13.75;7.07;;;;;;;;;;4390504;32;20073;-68
2021/08/19 06:40:23;;;;;;;14.32;7.60;;;;;;;;;;4378156;32;20142;-68
2021/08/19 06:42:49;;;;;;;15.10;7.43;;;;;;;;;;4390302;32;20089;-68
2021/08/19 06:45:16;;;;;;;14.80;6.82;;;;;;;;;;4390062;32;20527;-69
2021/08/19 06:47:43;;;;;;;13.55;7.37;;;;;;;;;;4389830;32;20181;-69
2021/08/19 06:50:10;;;;;;;12.70;6.78;;;;;;;;;;4390011;32;20069;-69
2021/08/19 06:52:40;;;;;;;13.25;7.10;;;;;;;;;;4377414;32;20500;-68
2021/08/19 06:55:08;;;;;;;11.75;6.60;;;;;;;;;;4390554;32;20081;-67
2021/08/19 06:57:35;;;;;;;13.00;7.12;;;;;;;;;;4390113;32;20071;-68
2021/08/19 07:00:01;;;;;;;15.15;7.30;;;;;;;;;;4389989;32;20090;-69
2021/08/19 07:02:28;;;;;;;15.00;7.45;;;;;;;;;;4390244;32;20169;-70
2021/08/19 07:04:54;;;;;;;12.65;7.45;;;;;;;;;;4390062;32;20078;-69
2021/08/19 07:07:21;;;;;;;14.05;7.10;;;;;;;;;;4390124;32;20092;-67
2021/08/19 07:09:48;;;;;;;18.27;7.78;;;;;;;;;;4390289;32;20089;-68
2021/08/19 07:12:14;;;;;;;12.95;7.55;;;;;;;;;;4389856;32;20168;-68
2021/08/19 07:14:41;;;;;;;15.45;7.18;;;;;;;;;;4368751;32;20074;-70
2021/08/19 07:17:07;;;;;;;13.95;7.20;;;;;;;;;;4390295;32;20105;-67
2021/08/19 07:19:34;;;;;;;14.90;7.20;;;;;;;;;;4389667;32;20088;-66
2021/08/19 07:22:01;;;;;;;13.48;7.80;;;;;;;;;;4374600;32;20093;-68
2021/08/19 07:24:28;;;;;;;10.70;6.47;;;;;;;;;;4362209;32;20214;-68
2021/08/19 07:26:54;;;;;;;12.30;7.05;;;;;;;;;;4389283;32;20065;-67
2021/08/19 07:29:21;;;;;;;13.73;6.70;;;;;;;;;;4369186;32;20165;-67
2021/08/19 07:31:47;;;;;;;11.95;6.30;;;;;;;;;;4380589;32;20081;-66
2021/08/19 07:34:14;;;;;;;12.07;6.47;;;;;;;;;;4381293;32;20105;-70
2021/08/19 07:36:41;;;;;;;12.55;7.20;;;;;;;;;;4358719;32;20081;-71
2021/08/19 07:39:07;;;;;;;13.73;6.78;;;;;;;;;;4390319;32;20105;-69
2021/08/19 07:41:34;;;;;;;12.20;6.65;;;;;;;;;;4385362;32;20073;-69
2021/08/19 07:44:01;;;;;;;12.70;7.40;;;;;;;;;;4369365;32;20070;-71
2021/08/19 07:46:27;;;;;;;14.02;7.22;;;;;;;;;;4377883;32;20066;-70
2021/08/19 07:48:56;;;;;;;11.23;7.05;;;;;;;;;;4365881;32;20592;-72
2021/08/19 07:51:26;;;;;;;14.07;7.50;;;;;;;;;;4375595;32;20110;-71
2021/08/19 07:53:53;;;;;;;10.82;6.18;;;;;;;;;;4380488;32;20077;-71
2021/08/19 07:56:19;;;;;;;12.60;6.65;;;;;;;;;;4374118;32;20081;-71
2021/08/19 07:58:46;;;;;;;11.45;6.97;;;;;;;;;;4370271;32;20055;-69
2021/08/19 08:01:12;;;;;;;13.85;7.25;;;;;;;;;;4375520;32;20082;-69
2021/08/19 08:03:39;;;;;;;12.93;7.10;;;;;;;;;;4383611;32;20159;-70
2021/08/19 08:06:05;;;;;;;12.37;7.10;;;;;;;;;;4376315;32;20108;-66
2021/08/19 08:08:32;;;;;;;13.93;6.97;;;;;;;;;;4383714;32;20078;-70
2021/08/19 08:10:58;;;;;;;14.25;7.00;;;;;;;;;;4375980;32;20150;-70
2021/08/19 08:13:25;;;;;;;13.27;7.12;;;;;;;;;;4389236;32;20593;-70
2021/08/19 08:15:51;;;;;;;12.40;6.72;;;;;;;;;;4384064;32;20089;-73
2021/08/19 08:18:18;;;;;;;11.65;6.70;;;;;;;;;;4390700;32;20154;-75
2021/08/19 08:20:45;;;;;;;13.13;6.72;;;;;;;;;;4391382;32;20093;-74
2021/08/19 08:23:11;;;;;;;11.25;6.87;;;;;;;;;;4375948;32;20539;-73
2021/08/19 08:25:38;;;;;;;12.40;6.47;;;;;;;;;;4378308;32;20076;-78
2021/08/19 08:28:09;;;;;;;11.38;6.30;;;;;;;;;;4384465;32;20070;-70
2021/08/19 08:30:44;;;;;;;13.25;6.85;;;;;;;;;;4381912;32;20149;-71
2021/08/19 08:33:12;;;;;;;;;;;;;;;;;;4364841;32;20530;-67
2021/08/19 08:35:38;;;;;;;11.15;6.28;;;;;;;;;;4383719;32;20068;-70
2021/08/19 08:38:11;;;;;;;13.90;6.87;;;;;;;;;;4386859;32;20163;-71
2021/08/19 08:40:38;;;;;;;11.63;6.30;;;;;;;;;;4378934;32;20158;-70
2021/08/19 08:43:05;;;;;;;11.20;6.18;;;;;;;;;;4377577;32;20500;-68
2021/08/19 08:45:35;;;;;;;11.52;6.50;;;;;;;;;;4375021;32;20545;-69
2021/08/19 08:48:12;;;;;;;10.02;6.40;;;;;;;;;;4352882;32;20492;-71
2021/08/19 08:50:43;;;;;;;11.35;6.03;;;;;;;;;;4379010;32;20541;-72
2021/08/19 08:53:10;;;;;;;12.37;6.70;;;;;;;;;;4377831;32;20062;-70
2021/08/19 08:55:37;;;;;;;13.07;6.15;;;;;;;;;;4357834;32;20100;-71
2021/08/19 08:58:04;;;;;;;10.20;5.85;;;;;;;;;;4356845;32;20097;-72
2021/08/19 09:00:31;;;;;;;11.10;5.47;;;;;;;;;;4386640;32;20109;-72
2021/08/19 09:02:57;;;;;;;11.55;6.05;;;;;;;;;;4384832;32;20101;-76
2021/08/19 09:05:25;;;;;;;13.85;5.68;;;;;;;;;;4375789;32;20101;-81
2021/08/19 09:07:58;;;;;;;9.70;5.95;;;;;;;;;;4375375;32;20062;-73
2021/08/19 09:10:28;;;;;;;11.05;5.68;;;;;;;;;;4375004;32;20074;-75
2021/08/19 09:12:54;;;;;;;12.77;6.30;;;;;;;;;;4370683;32;20094;-75
2021/08/19 09:15:25;;;;;;;11.90;5.95;;;;;;;;;;4377302;32;20078;-64
2021/08/19 09:17:53;;;;;;;11.38;5.47;;;;;;;;;;4365411;32;20175;-69
2021/08/19 09:20:20;;;;;;;10.27;5.93;;;;;;;;;;4397974;32;20107;-64
2021/08/19 09:22:51;;;;;;;10.68;5.93;;;;;;;;;;4378554;32;20079;-68
2021/08/19 09:25:29;;;;;;;10.77;5.68;;;;;;;;;;4389864;32;20097;-67
2021/08/19 09:28:12;;;;;;;11.38;6.00;;;;;;;;;;4388459;32;20177;-68
2021/08/19 09:30:40;;;;;;;10.70;5.62;;;;;;;;;;4385009;32;20762;-65
2021/08/19 09:33:07;;;;;;;9.23;5.43;;;;;;;;;;4362144;32;20141;-69
2021/08/19 09:35:34;;;;;;;9.10;5.30;;;;;;;;;;4373019;32;20196;-70
2021/08/19 09:38:08;;;;;;;9.52;5.90;;;;;;;;;;4383217;32;20097;-66
2021/08/19 09:40:34;;;;;;;10.25;6.15;;;;;;;;;;4384686;32;20105;-74
2021/08/19 09:43:01;;;;;;;9.45;5.43;;;;;;;;;;4389364;32;20142;-72
2021/08/19 09:45:28;;;;;;;10.27;6.55;;;;;;;;;;4388354;32;20108;-73
2021/08/19 09:48:09;;;;;;;9.63;5.80;;;;;;;;;;4382635;32;20152;-72
2021/08/19 09:50:36;;;;;;;11.35;6.03;;;;;;;;;;4374997;32;20512;-64
2021/08/19 09:53:23;;;;;;;9.38;5.93;;;;;;;;;;4376595;32;20085;-72
2021/08/19 09:55:52;;;;;;;9.50;5.22;;;;;;;;;;4370855;32;20070;-66
2021/08/19 09:58:36;;;;;;;10.20;5.70;;;;;;;;;;4360212;32;20498;-66
2021/08/19 10:01:03;;;;;;;12.93;6.07;;;;;;;;;;4369920;32;20445;-69
2021/08/19 10:03:30;;;;;;;13.62;5.75;;;;;;;;;;4372655;32;20513;-66
2021/08/19 10:05:57;;;;;;;10.77;5.97;;;;;;;;;;4387303;32;20069;-64
2021/08/19 10:08:23;;;;;;;8.80;5.18;;;;;;;;;;4373480;32;20090;-69
2021/08/19 10:10:55;;;;;;;10.65;4.93;;;;;;;;;;4383778;32;20232;-69
2021/08/19 10:13:22;;;;;;;8.57;5.53;;;;;;;;;;4383452;32;20066;-64
2021/08/19 10:15:49;;;;;;;8.00;4.40;;;;;;;;;;4381691;32;20109;-71
2021/08/19 10:18:22;;;;;;;8.95;4.72;;;;;;;;;;4386748;32;20073;-70
2021/08/19 10:21:02;;;;;;;10.23;4.72;;;;;;;;;;4360544;32;20078;-71
2021/08/19 10:23:29;;;;;;;10.13;4.65;;;;;;;;;;4372683;32;20095;-68
2021/08/19 10:26:09;;;;;;;8.55;4.93;;;;;;;;;;4384277;32;20141;-68
2021/08/19 10:28:51;;;;;;;7.97;4.60;;;;;;;;;;4381480;32;20081;-66
2021/08/19 10:31:38;;;;;;;11.07;5.22;;;;;;;;;;4384252;32;20096;-66
2021/08/19 10:34:04;;;;;;;8.15;4.85;;;;;;;;;;4371714;32;20112;-66
2021/08/19 10:36:47;;;;;;;8.77;4.75;;;;;;;;;;4371392;32;20127;-66
2021/08/19 10:39:20;;;;;;;8.13;4.62;;;;;;;;;;4384480;32;20101;-67
2021/08/19 10:41:50;;;;;;;9.85;4.97;;;;;;;;;;4387394;32;20109;-67
2021/08/19 10:44:17;;;;;;;8.18;4.35;;;;;;;;;;4370138;32;20070;-67
2021/08/19 10:46:45;;;;;;;7.45;3.65;;;;;;;;;;4362075;32;20136;-67
2021/08/19 10:49:30;;;;;;;6.10;3.78;;;;;;;;;;4376945;32;20181;-68
2021/08/19 10:52:23;;;;;;;5.55;3.67;;;;;;;;;;4385671;32;20074;-67
2021/08/19 10:54:50;;;;;;;6.25;3.80;;;;;;;;;;4377151;32;20119;-67
2021/08/19 10:57:31;;;;;;;6.97;4.35;;;;;;;;;;4379872;32;20274;-68
2021/08/19 10:59:58;;;;;;;7.07;3.65;;;;;;;;;;4389046;32;20500;-66
2021/08/19 11:02:42;;;;;;;8.75;3.30;;;;;;;;;;4384311;32;20113;-65
2021/08/19 11:05:29;;;;;;;5.55;3.75;;;;;;;;;;4387648;32;20102;-68
2021/08/19 11:07:57;;;;;;;5.30;3.42;;;;;;;;;;4371439;32;20070;-64
2021/08/19 11:10:26;;;;;;;6.15;3.62;;;;;;;;;;4380836;32;20257;-66
2021/08/19 11:12:53;;;;;;;7.28;3.50;;;;;;;;;;4380876;32;20069;-68
2021/08/19 11:15:19;;;;;;;5.53;3.78;;;;;;;;;;4389255;32;20073;-63
2021/08/19 11:17:50;;;;;;;4.93;3.55;;;;;;;;;;4380943;32;20073;-68
2021/08/19 11:20:23;;;;;;;6.00;4.12;;;;;;;;;;4381273;32;20070;-68
2021/08/19 11:23:06;;;;;;;7.30;3.60;;;;;;;;;;4372128;32;20073;-67
2021/08/19 11:25:34;;;;;;;4.87;3.42;;;;;;;;;;4380784;32;20101;-76
2021/08/19 11:28:11;;;;;;;5.70;3.78;;;;;;;;;;4352826;32;20650;-68
2021/08/19 11:30:39;;;;;;;4.95;3.78;;;;;;;;;;4373856;32;20059;-64
2021/08/19 11:33:13;;;;;;;5.37;3.50;;;;;;;;;;4378758;32;20109;-67
2021/08/19 11:35:39;;;;;;;6.03;3.72;;;;;;;;;;4384304;32;20065;-66
2021/08/19 11:38:20;;;;;;;6.32;3.60;;;;;;;;;;4384646;32;20542;-65
2021/08/19 11:40:48;;;;;;;6.20;3.10;;;;;;;;;;4385162;32;20065;-67
2021/08/19 11:43:21;;;;;;;8.48;3.37;;;;;;;;;;4368774;32;20109;-69
2021/08/19 11:45:49;;;;;;;6.70;3.47;;;;;;;;;;4385706;32;20112;-67
2021/08/19 11:48:20;;;;;;;5.10;3.30;;;;;;;;;;4389911;32;20105;-65
2021/08/19 11:50:57;;;;;;;6.93;3.50;;;;;;;;;;4392940;32;20097;-65
2021/08/19 11:53:24;;;;;;;7.03;3.90;;;;;;;;;;4377535;32;20140;-63
2021/08/19 11:55:51;;;;;;;5.75;3.47;;;;;;;;;;4377015;32;20074;-69
2021/08/19 11:58:24;;;;;;;5.82;3.90;;;;;;;;;;4374241;32;20510;-63
2021/08/19 12:01:25;;;;;;;5.85;3.62;;;;;;;;;;4383253;32;20524;-68
2021/08/19 12:03:52;;;;;;;5.20;3.60;;;;;;;;;;4386373;32;20163;-64
2021/08/19 12:06:19;;;;;;;5.97;3.87;;;;;;;;;;4389136;32;20092;-64
2021/08/19 12:08:47;;;;;;;7.97;5.53;;;;;;;;;;4387566;32;20093;-63
2021/08/19 12:11:18;;;;;;;7.53;4.25;;;;;;;;;;4391964;32;20068;-69
2021/08/19 12:13:45;;;;;;;5.32;3.70;;;;;;;;;;4390254;32;20078;-66
2021/08/19 12:16:12;;;;;;;6.05;3.80;;;;;;;;;;4374377;32;20116;-67
2021/08/19 12:18:38;;;;;;;6.07;3.83;;;;;;;;;;4383038;32;20070;-64
2021/08/19 12:21:20;;;;;;;6.35;3.58;;;;;;;;;;4389532;32;20527;-66
2021/08/19 12:23:47;;;;;;;6.05;3.28;;;;;;;;;;4387238;32;20090;-63
2021/08/19 12:26:15;;;;;;;8.77;3.83;;;;;;;;;;4380615;32;20085;-64
2021/08/19 12:28:56;;;;;;;7.40;4.93;;;;;;;;;;4387131;32;20101;-64
2021/08/19 12:31:23;;;;;;;21.12;7.78;;;;;;;;;;4387086;32;20565;-63
2021/08/19 12:36:29;;;;;;;;;;;;;;;;;;3849527;37;20050;-63
2021/08/19 12:39:05;;;;;;;7.12;3.50;;;;;;;;;;4416818;32;19957;-63
2021/08/19 12:41:31;;;;;;;;;;;;;;;;;;4398600;32;20145;-65
2021/08/19 12:44:08;;;;;;;6.30;4.00;;;;;;;;;;4396302;32;19993;-64
2021/08/19 12:46:39;;;;;;;6.70;3.83;;;;;;;;;;4399752;32;20127;-62
2021/08/19 12:49:34;;;;;;;6.62;4.10;;;;;;;;;;4408842;32;20619;-62
2021/08/19 12:52:16;;;;;;;8.93;4.00;;;;;;;;;;4411419;32;20108;-62
2021/08/19 12:55:13;;;;;;;7.40;3.80;;;;;;;;;;4412742;32;20137;-63
2021/08/19 12:57:52;;;;;;;7.40;3.67;;;;;;;;;;4395145;32;20072;-64
2021/08/19 13:00:21;;;;;;;6.97;4.20;;;;;;;;;;4400418;32;20076;-63
2021/08/19 13:02:48;;;;;;;7.78;3.92;;;;;;;;;;4416627;32;20065;-63
2021/08/19 13:05:16;;;;;;;6.85;4.20;;;;;;;;;;4389852;32;20150;-64
2021/08/19 13:07:43;;;;;;;8.32;4.28;;;;;;;;;;4389680;32;20101;-64
2021/08/19 13:10:10;;;;;;;6.85;3.70;;;;;;;;;;4405133;32;20062;-63
2021/08/19 13:12:37;;;;;;;7.72;4.22;;;;;;;;;;4408647;32;20061;-62
2021/08/19 13:15:05;;;;;;;6.03;3.55;;;;;;;;;;4371902;32;20071;-63
2021/08/19 13:17:31;;;;;;;9.52;4.10;;;;;;;;;;4387977;32;20540;-63
2021/08/19 13:19:58;;;;;;;6.68;3.90;;;;;;;;;;4396912;32;20532;-63
2021/08/19 13:22:25;;;;;;;7.87;3.90;;;;;;;;;;4401399;32;20157;-64
2021/08/19 13:24:51;;;;;;;9.00;4.37;;;;;;;;;;4375409;32;20073;-64
2021/08/19 13:27:19;;;;;;;9.18;4.25;;;;;;;;;;4397301;32;20101;-63
2021/08/19 13:29:46;;;;;;;6.28;4.30;;;;;;;;;;4395694;32;20104;-63
2021/08/19 13:32:14;;;;;;;7.68;4.03;;;;;;;;;;4374160;32;20678;-64
2021/08/19 13:34:41;;;;;;;5.62;3.97;;;;;;;;;;4387385;32;20091;-64
2021/08/19 13:37:08;;;;;;;6.37;3.58;;;;;;;;;;4396013;32;20544;-62
2021/08/19 13:39:36;;;;;;;9.63;4.80;;;;;;;;;;4399770;32;20086;-63
2021/08/19 13:42:02;;;;;;;6.78;4.30;;;;;;;;;;4393225;32;20081;-67
2021/08/19 13:44:29;;;;;;;6.15;3.55;;;;;;;;;;4398289;32;20093;-67
2021/08/19 13:46:56;;;;;;;5.80;3.78;;;;;;;;;;4378178;32;20113;-63
2021/08/19 13:49:23;;;;;;;6.18;3.92;;;;;;;;;;4385533;32;20069;-67
2021/08/19 13:51:49;;;;;;;7.97;4.05;;;;;;;;;;4385711;32;20121;-68
2021/08/19 13:54:16;;;;;;;6.47;4.05;;;;;;;;;;4389849;32;20069;-68
2021/08/19 13:56:42;;;;;;;7.10;4.25;;;;;;;;;;4390919;32;20094;-70
2021/08/19 13:59:10;;;;;;;8.18;4.15;;;;;;;;;;4390929;32;20531;-71
2021/08/19 14:01:36;;;;;;;6.47;4.37;;;;;;;;;;4392636;32;20179;-72
2021/08/19 14:04:03;;;;;;;5.45;3.78;;;;;;;;;;4388896;32;20527;-78
2021/08/19 14:06:29;;;;;;;7.28;4.10;;;;;;;;;;4387374;32;20216;-66
2021/08/19 14:08:56;;;;;;;7.87;4.10;;;;;;;;;;4386171;32;20070;-72
2021/08/19 14:11:22;;;;;;;7.18;3.80;;;;;;;;;;4374945;32;20097;-73
2021/08/19 14:13:49;;;;;;;8.90;4.12;;;;;;;;;;4389721;32;20496;-68
2021/08/19 14:16:15;;;;;;;6.53;4.22;;;;;;;;;;4390153;32;20161;-65
2021/08/19 14:18:42;;;;;;;10.07;4.12;;;;;;;;;;4391782;32;20085;-65
2021/08/19 14:21:09;;;;;;;6.37;4.28;;;;;;;;;;4376890;32;20098;-65
2021/08/19 14:23:36;;;;;;;8.43;4.65;;;;;;;;;;4383737;32;20077;-64
2021/08/19 14:26:05;;;;;;;7.72;4.40;;;;;;;;;;4364394;32;20093;-63
2021/08/19 14:28:32;;;;;;;6.55;4.20;;;;;;;;;;4388162;32;20070;-64
2021/08/19 14:30:59;;;;;;;8.75;4.32;;;;;;;;;;4388884;32;20537;-71
2021/08/19 14:33:25;;;;;;;7.90;4.53;;;;;;;;;;4379252;32;20145;-68
2021/08/19 14:35:52;;;;;;;8.45;4.62;;;;;;;;;;4390664;32;20163;-68
2021/08/19 14:38:22;;;;;;;7.35;4.75;;;;;;;;;;4388329;32;20077;-66
2021/08/19 14:40:48;;;;;;;7.12;3.90;;;;;;;;;;4373717;32;20130;-67
2021/08/19 14:43:15;;;;;;;10.80;4.53;;;;;;;;;;4389477;32;20094;-70